Time;durP1;ratioP1;P1;durP2;ratioP2;P2;SDS_P1;SDS_P2;PMS_P1;PMS_P2;Temp;Humidity;BMP_temperature;BMP_pressure;BME280_temperature;BME280_humidity;BME280_pressure;Samples;Min_cycle;Max_cycle;Signal;HPM_P1;HPM_P2
2021/08/26 00:07:17;;;;;;;8.27;6.23;;;;;;;;;;5033441;28;20800;-89
2021/08/26 00:09:44;;;;;;;20.13;5.93;;;;;;;;;;5034713;28;20519;-90
2021/08/26 00:12:12;;;;;;;9.53;6.33;;;;;;;;;;5032896;28;20463;-91
2021/08/26 00:14:39;;;;;;;9.10;6.50;;;;;;;;;;5033655;28;20562;-92
2021/08/26 00:17:06;;;;;;;8.20;6.67;;;;;;;;;;5034527;28;20772;-92
2021/08/26 00:19:34;;;;;;;7.87;6.30;;;14.00;99.90;;;;;;5034155;28;20443;-92
2021/08/26 00:22:03;;;;;;;7.97;5.77;;;;;;;;;;5037002;28;20431;-92
2021/08/26 00:24:30;;;;;;;8.63;6.37;;;;;;;;;;5057296;28;20442;-91
2021/08/26 00:26:57;;;;;;;10.17;6.50;;;;;;;;;;5048924;28;20443;-92
2021/08/26 00:29:24;;;;;;;9.70;6.53;;;;;;;;;;5037170;28;20482;-92
2021/08/26 00:31:51;;;;;;;8.17;6.30;;;;;;;;;;5034817;28;20435;-93
2021/08/26 00:34:18;;;;;;;8.50;6.47;;;;;;;;;;5038241;28;20915;-91
2021/08/26 00:36:46;;;;;;;10.03;6.90;;;13.60;99.90;;;;;;5036937;28;20448;-91
2021/08/26 00:39:13;;;;;;;7.87;6.27;;;;;;;;;;5037203;28;20459;-91
2021/08/26 00:41:41;;;;;;;9.10;5.97;;;13.50;99.90;;;;;;5035815;28;20458;-91
2021/08/26 00:44:08;;;;;;;8.63;6.80;;;;;;;;;;5036694;28;20483;-91
2021/08/26 00:46:35;;;;;;;8.63;5.97;;;;;;;;;;5035411;28;20463;-91
2021/08/26 00:49:03;;;;;;;8.43;6.10;;;;;;;;;;5036787;28;20796;-91
2021/08/26 00:51:32;;;;;;;10.07;6.90;;;13.50;99.90;;;;;;5036580;28;20443;-89
2021/08/26 00:54:00;;;;;;;8.10;6.27;;;13.50;99.90;;;;;;5036653;28;20522;-92
2021/08/26 00:56:27;;;;;;;8.87;6.40;;;;;;;;;;5036996;28;20451;-92
2021/08/26 00:58:54;;;;;;;8.93;6.73;;;;;;;;;;5044117;28;20435;-90
2021/08/26 01:01:29;;;;;;;9.30;6.70;;;13.30;99.90;;;;;;5036340;28;20988;-92
2021/08/26 01:04:03;;;;;;;7.60;5.77;;;13.40;99.90;;;;;;5036090;28;20447;-91
2021/08/26 01:06:38;;;;;;;8.37;6.80;;;13.30;99.90;;;;;;5036725;28;20462;-92
2021/08/26 01:09:11;;;;;;;8.27;6.10;;;13.30;99.90;;;;;;5035946;28;20451;-91
2021/08/26 01:11:44;;;;;;;8.87;6.90;;;13.30;99.90;;;;;;5034182;28;20459;-89
2021/08/26 01:14:12;;;;;;;9.17;6.97;;;13.20;99.90;;;;;;5036647;28;20480;-91
2021/08/26 01:16:40;;;;;;;11.00;7.10;;;;;;;;;;5036968;28;20768;-91
2021/08/26 01:19:07;;;;;;;10.03;6.70;;;;;;;;;;5037883;28;20443;-90
2021/08/26 01:21:34;;;;;;;9.03;6.37;;;;;;;;;;5036068;28;20799;-91
2021/08/26 01:24:03;;;;;;;7.83;5.80;;;13.10;99.90;;;;;;5036323;28;20435;-90
2021/08/26 01:26:35;;;;;;;9.27;6.80;;;13.10;99.90;;;;;;5035282;28;20451;-92
2021/08/26 01:29:04;;;;;;;9.83;6.10;;;13.10;99.90;;;;;;5035883;28;20443;-92
2021/08/26 01:31:31;;;;;;;8.57;6.60;;;;;;;;;;5035806;28;20494;-91
2021/08/26 01:33:59;;;;;;;10.80;6.20;;;13.00;99.90;;;;;;5035354;28;20458;-92
2021/08/26 01:36:27;;;;;;;11.50;6.93;;;13.00;99.90;;;;;;5031018;28;20443;-92
2021/08/26 01:39:01;;;;;;;11.23;7.27;;;13.00;99.90;;;;;;5035087;28;20448;-93
2021/08/26 01:41:42;;;;;;;7.83;5.97;;;12.90;99.90;;;;;;5032676;28;20474;-92
2021/08/26 01:44:10;;;;;;;9.13;6.60;;;12.90;99.90;;;;;;5035177;28;20478;-91
2021/08/26 01:46:37;;;;;;;7.57;5.83;;;;;;;;;;5033045;28;20436;-92
2021/08/26 01:49:04;;;;;;;10.50;5.97;;;;;;;;;;5035252;28;20447;-90
2021/08/26 01:51:31;;;;;;;10.00;6.50;;;;;;;;;;5035403;28;20471;-89
2021/08/26 01:53:59;;;;;;;9.67;7.87;;;;;;;;;;5036868;28;20451;-92
2021/08/26 01:56:26;;;;;;;8.17;6.60;;;;;;;;;;5034653;28;20444;-93
2021/08/26 01:58:54;;;;;;;12.33;6.40;;;12.60;99.90;;;;;;5035375;28;20458;-90
2021/08/26 02:01:21;;;;;;;9.20;6.70;;;;;;;;;;5036043;28;20439;-91
2021/08/26 02:03:48;;;;;;;10.33;6.53;;;;;;;;;;5036880;28;20455;-90
2021/08/26 02:06:15;;;;;;;7.80;6.10;;;;;;;;;;5037189;28;20455;-91
2021/08/26 02:08:42;;;;;;;9.10;6.60;;;;;;;;;;5037080;28;20459;-91
2021/08/26 02:11:09;;;;;;;7.50;6.47;;;;;;;;;;5033387;28;21033;-90
2021/08/26 02:13:36;;;;;;;8.73;6.60;;;;;;;;;;5036974;28;20475;-92
2021/08/26 02:16:06;;;;;;;12.80;7.27;;;12.40;99.90;;;;;;5035008;28;20497;-91
2021/08/26 02:18:33;;;;;;;10.60;5.90;;;;;;;;;;5035153;28;20436;-91
2021/08/26 02:21:00;;;;;;;11.80;6.80;;;;;;;;;;5035270;28;20439;-91
2021/08/26 02:23:27;;;;;;;8.23;5.87;;;;;;;;;;5034995;28;20775;-93
2021/08/26 02:25:54;;;;;;;10.93;6.67;;;;;;;;;;5034261;28;20447;-92
2021/08/26 02:28:21;;;;;;;9.50;6.73;;;;;;;;;;5034663;28;20447;-91
2021/08/26 02:30:48;;;;;;;7.63;6.27;;;;;;;;;;5034668;28;20479;-91
2021/08/26 02:33:17;;;;;;;9.40;6.77;;;12.00;99.90;;;;;;5034834;28;20767;-91
2021/08/26 02:35:44;;;;;;;9.90;7.40;;;;;;;;;;5035041;28;20451;-91
2021/08/26 02:38:11;;;;;;;9.97;7.10;;;;;;;;;;5035200;28;20435;-90
2021/08/26 02:40:38;;;;;;;7.80;6.80;;;;;;;;;;5034105;28;20459;-91
2021/08/26 02:43:05;;;;;;;7.73;6.13;;;;;;;;;;5034759;28;20428;-90
2021/08/26 02:45:32;;;;;;;8.27;6.87;;;;;;;;;;5034825;28;20484;-92
2021/08/26 02:47:59;;;;;;;10.20;6.83;;;;;;;;;;5034625;28;20443;-92
2021/08/26 02:50:27;;;;;;;10.07;7.23;;;11.50;99.90;;;;;;5033766;28;20475;-91
2021/08/26 02:52:55;;;;;;;6.90;5.60;;;;;;;;;;5034850;28;20432;-91
2021/08/26 02:55:22;;;;;;;8.60;5.90;;;;;;;;;;5033044;28;20443;-89
2021/08/26 02:57:49;;;;;;;9.50;6.03;;;;;;;;;;5035810;28;20463;-90
2021/08/26 03:00:16;;;;;;;10.20;7.63;;;;;;;;;;5034528;28;20439;-91
2021/08/26 03:02:43;;;;;;;9.27;6.17;;;;;;;;;;5034589;28;20451;-91
2021/08/26 03:05:11;;;;;;;9.63;6.67;;;12.00;99.90;;;;;;5034758;28;20439;-91
2021/08/26 03:07:39;;;;;;;7.13;6.43;;;11.70;99.90;;;;;;5033851;28;20550;-92
2021/08/26 03:10:07;;;;;;;12.40;7.73;;;11.80;99.90;;;;;;5034261;28;20820;-91
2021/08/26 03:12:34;;;;;;;8.80;6.50;;;;;;;;;;5033609;28;20471;-90
2021/08/26 03:15:01;;;;;;;8.30;6.57;;;;;;;;;;5036236;28;20448;-90
2021/08/26 03:17:28;;;;;;;8.40;6.93;;;;;;;;;;5056389;28;20452;-90
2021/08/26 03:19:55;;;;;;;10.60;6.97;;;;;;;;;;5051161;28;20443;-90
2021/08/26 03:22:22;;;;;;;9.27;7.00;;;;;;;;;;5034029;28;20451;-90
2021/08/26 03:24:51;;;;;;;8.50;7.20;;;12.80;99.90;;;;;;5033961;28;20448;-90
2021/08/26 03:27:18;;;;;;;8.67;6.27;;;;;;;;;;5033500;28;20443;-90
2021/08/26 03:29:45;;;;;;;7.80;6.30;;;;;;;;;;5033779;28;20444;-91
2021/08/26 03:32:12;;;;;;;9.30;7.13;;;;;;;;;;5033834;28;20534;-91
2021/08/26 03:34:39;;;;;;;9.30;7.17;;;;;;;;;;5033978;28;20436;-92
2021/08/26 03:37:07;;;;;;;10.03;7.43;;;;;;;;;;5033885;28;20795;-90
2021/08/26 03:39:34;;;;;;;9.30;6.60;;;;;;;;;;5034093;28;20920;-92
2021/08/26 03:42:02;;;;;;;9.00;7.13;;;12.70;99.90;;;;;;5033224;28;20462;-92
2021/08/26 03:44:29;;;;;;;9.00;7.27;;;;;;;;;;5031933;28;20483;-91
2021/08/26 03:46:56;;;;;;;8.60;6.60;;;;;;;;;;5034080;28;20443;-92
2021/08/26 03:49:23;;;;;;;11.60;7.80;;;;;;;;;;5033765;28;20447;-92
2021/08/26 03:51:51;;;;;;;9.93;7.10;;;;;;;;;;5033621;28;20491;-91
2021/08/26 03:54:18;;;;;;;9.73;6.60;;;;;;;;;;5033556;28;20447;-91
2021/08/26 03:56:45;;;;;;;8.53;6.93;;;;;;;;;;5033138;28;20459;-91
2021/08/26 03:59:13;;;;;;;10.87;7.53;;;;;;;;;;5034733;28;20455;-92
2021/08/26 04:01:40;;;;;;;10.83;6.83;;;;;;;;;;5034300;28;20436;-92
2021/08/26 04:04:07;;;;;;;11.33;7.27;;;;;;;;;;5037748;28;20440;-91
2021/08/26 04:06:35;;;;;;;9.67;6.30;;;;;;;;;;5037712;28;20436;-92
2021/08/26 04:09:02;;;;;;;9.33;7.67;;;;;;;;;;5037523;28;20428;-90
2021/08/26 04:11:29;;;;;;;9.80;8.00;;;;;;;;;;5036930;28;20502;-91
2021/08/26 04:13:56;;;;;;;11.23;8.10;;;;;;;;;;5038360;28;20463;-91
2021/08/26 04:16:24;;;;;;;9.10;7.77;;;12.30;99.90;;;;;;5038420;28;20458;-92
2021/08/26 04:18:51;;;;;;;10.43;6.40;;;;;;;;;;5037046;28;20440;-91
2021/08/26 04:21:18;;;;;;;8.43;6.97;;;;;;;;;;5038204;28;20443;-90
2021/08/26 04:23:45;;;;;;;14.07;7.10;;;;;;;;;;5037297;28;20459;-92
2021/08/26 04:26:12;;;;;;;9.80;7.10;;;;;;;;;;5036661;28;20466;-93
2021/08/26 04:28:40;;;;;;;10.00;7.20;;;;;;;;;;5036715;28;20435;-92
2021/08/26 04:31:07;;;;;;;9.53;6.97;;;;;;;;;;5036806;28;20467;-92
2021/08/26 04:33:35;;;;;;;11.37;7.90;;;12.30;99.90;;;;;;5036760;28;20451;-92
2021/08/26 04:36:02;;;;;;;8.70;6.70;;;;;;;;;;5036910;28;20470;-92
2021/08/26 04:38:29;;;;;;;9.07;6.93;;;;;;;;;;5036785;28;20915;-92
2021/08/26 04:40:56;;;;;;;11.30;7.73;;;;;;;;;;5036290;28;20451;-92
2021/08/26 04:43:23;;;;;;;8.93;6.87;;;;;;;;;;5035438;28;20443;-92
2021/08/26 04:45:50;;;;;;;9.63;6.77;;;;;;;;;;5036611;28;20470;-92
2021/08/26 04:48:18;;;;;;;9.93;6.40;;;;;;;;;;5036511;28;20945;-91
2021/08/26 04:50:46;;;;;;;9.80;6.90;;;12.60;99.90;;;;;;5036568;28;20471;-90
2021/08/26 04:53:14;;;;;;;11.63;6.97;;;12.70;99.90;;;;;;5037671;28;20459;-92
2021/08/26 04:55:41;;;;;;;10.07;7.20;;;;;;;;;;5035706;28;20439;-91
2021/08/26 04:58:09;;;;;;;11.67;7.20;;;;;;;;;;5036454;28;20444;-90
2021/08/26 05:00:36;;;;;;;10.57;7.67;;;;;;;;;;5035982;28;20452;-92
2021/08/26 05:03:05;;;;;;;12.50;6.23;;;;;;;;;;5036796;28;20455;-93
2021/08/26 05:05:32;;;;;;;9.37;7.60;;;;;;;;;;5036374;28;20431;-91
2021/08/26 05:08:00;;;;;;;7.97;6.80;;;13.20;99.90;;;;;;5036569;28;20463;-91
2021/08/26 05:10:27;;;;;;;12.13;7.80;;;;;;;;;;5035187;28;20459;-91
2021/08/26 05:12:54;;;;;;;9.20;7.30;;;;;;;;;;5035944;28;20440;-91
2021/08/26 05:15:21;;;;;;;8.90;7.20;;;;;;;;;;5035911;28;20447;-92
2021/08/26 05:17:48;;;;;;;12.40;7.17;;;;;;;;;;5036126;28;20455;-90
2021/08/26 05:20:15;;;;;;;9.33;7.43;;;;;;;;;;5036283;28;20435;-91
2021/08/26 05:22:43;;;;;;;14.13;7.50;;;;;;;;;;5036447;28;20455;-92
2021/08/26 05:25:11;;;;;;;12.57;7.73;;;13.30;99.90;;;;;;5036247;28;20799;-89
2021/08/26 05:27:38;;;;;;;10.03;6.13;;;;;;;;;;5036772;28;20456;-91
2021/08/26 05:30:06;;;;;;;8.67;6.60;;;;;;;;;;5035911;28;20428;-93
2021/08/26 05:32:33;;;;;;;8.40;6.57;;;;;;;;;;5035967;28;20490;-91
2021/08/26 05:35:00;;;;;;;8.40;6.80;;;;;;;;;;5036103;28;20436;-92
2021/08/26 05:37:27;;;;;;;9.97;7.67;;;;;;;;;;5035365;28;20448;-90
2021/08/26 05:39:54;;;;;;;11.97;7.20;;;;;;;;;;5036105;28;20899;-91
2021/08/26 05:42:23;;;;;;;10.50;7.23;;;13.50;99.90;;;;;;5034696;28;20459;-90
2021/08/26 05:44:50;;;;;;;10.90;6.80;;;;;;;;;;5036050;28;20594;-91
2021/08/26 05:47:18;;;;;;;12.70;6.47;;;;;;;;;;5035483;28;20447;-92
2021/08/26 05:49:45;;;;;;;10.90;7.43;;;;;;;;;;5035890;28;20439;-92
2021/08/26 05:52:12;;;;;;;9.47;6.63;;;;;;;;;;5037297;28;20498;-91
2021/08/26 05:54:40;;;;;;;9.43;6.53;;;;;;;;;;5032993;28;20823;-92
2021/08/26 05:57:07;;;;;;;9.53;6.63;;;;;;;;;;5036142;28;20463;-91
2021/08/26 05:59:35;;;;;;;11.63;6.80;;;13.70;99.90;;;;;;5035264;28;20490;-92
2021/08/26 06:02:02;;;;;;;8.93;6.90;;;;;;;;;;5033115;28;20459;-90
2021/08/26 06:04:29;;;;;;;9.77;7.40;;;;;;;;;;5036065;28;20801;-91
2021/08/26 06:06:56;;;;;;;8.70;7.50;;;;;;;;;;5037679;28;20459;-91
2021/08/26 06:09:23;;;;;;;10.40;7.77;;;;;;;;;;5035839;28;20451;-92
2021/08/26 06:11:57;;;;;;;8.60;7.47;;;14.00;99.90;;;;;;5035134;28;20499;-89
2021/08/26 06:14:25;;;;;;;8.60;6.90;;;;;;;;;;5035912;28;20458;-90
2021/08/26 06:16:53;;;;;;;13.67;6.67;;;13.90;99.90;;;;;;5034498;28;20463;-90
2021/08/26 06:19:20;;;;;;;8.67;7.00;;;;;;;;;;5034578;28;20450;-91
2021/08/26 06:21:47;;;;;;;9.87;6.03;;;;;;;;;;5035930;28;20458;-90
2021/08/26 06:24:14;;;;;;;11.97;6.43;;;;;;;;;;5034695;28;20958;-90
2021/08/26 06:26:41;;;;;;;9.10;6.67;;;;;;;;;;5034108;28;20443;-89
2021/08/26 06:29:08;;;;;;;8.10;6.63;;;;;;;;;;5035945;28;20462;-90
2021/08/26 06:31:36;;;;;;;10.17;7.20;;;;;;;;;;5034548;28;20502;-88
2021/08/26 06:34:04;;;;;;;7.23;5.73;;;14.00;99.90;;;;;;5034742;28;20444;-90
2021/08/26 06:36:31;;;;;;;14.20;7.40;;;;;;;;;;5034326;28;20448;-90
2021/08/26 06:38:59;;;;;;;8.10;6.70;;;;;;;;;;5034329;28;20919;-91
2021/08/26 06:41:26;;;;;;;9.17;7.27;;;;;;;;;;5033840;28;20447;-90
2021/08/26 06:43:53;;;;;;;9.10;7.20;;;;;;;;;;5035272;28;20474;-90
2021/08/26 06:46:20;;;;;;;10.97;7.70;;;;;;;;;;5034537;28;20472;-91
2021/08/26 06:48:47;;;;;;;8.17;6.53;;;;;;;;;;5034131;28;20447;-91
2021/08/26 06:51:15;;;;;;;8.87;6.70;;;13.90;99.90;;;;;;5034463;28;20478;-93
2021/08/26 06:53:43;;;;;;;11.80;7.30;;;;;;;;;;5034346;28;20436;-92
2021/08/26 06:56:11;;;;;;;10.47;6.80;;;;;;;;;;5037840;28;20456;-93
2021/08/26 06:58:38;;;;;;;9.67;6.77;;;;;;;;;;5037895;28;20535;-94
2021/08/26 07:01:05;;;;;;;11.13;8.10;;;14.10;99.90;;;;;;5041516;28;20918;-92
2021/08/26 07:03:32;;;;;;;11.20;6.50;;;;;;;;;;5034330;28;20780;-94
2021/08/26 07:05:59;;;;;;;13.50;7.37;;;;;;;;;;5034794;28;20476;-91
2021/08/26 07:08:28;;;;;;;17.10;7.17;;;;;;;;;;5035355;28;20444;-91
2021/08/26 07:10:55;;;;;;;9.17;6.93;;;;;;;;;;5034356;28;20454;-90
2021/08/26 07:13:22;;;;;;;9.93;7.00;;;;;;;;;;5033783;28;20561;-88
2021/08/26 07:15:49;;;;;;;9.73;7.63;;;;;;;;;;5033892;28;20452;-88
2021/08/26 07:18:18;;;;;;;12.47;8.20;;;;;;;;;;5033751;28;20474;-89
2021/08/26 07:20:45;;;;;;;17.90;8.17;;;;;;;;;;5034016;28;20534;-89
2021/08/26 07:23:12;;;;;;;13.33;8.10;;;;;;;;;;5034418;28;20452;-91
2021/08/26 07:25:41;;;;;;;10.53;7.87;;;14.20;99.90;;;;;;5034002;28;20451;-90
2021/08/26 07:28:08;;;;;;;12.63;8.07;;;;;;;;;;5033959;28;20546;-91
2021/08/26 07:30:35;;;;;;;12.23;9.13;;;;;;;;;;5034170;28;20469;-90
2021/08/26 07:33:03;;;;;;;10.47;8.37;;;;;;;;;;5034456;28;20467;-90
2021/08/26 07:35:30;;;;;;;15.87;9.60;;;;;;;;;;5034760;28;20460;-92
2021/08/26 07:37:57;;;;;;;11.57;8.93;;;;;;;;;;5033641;28;20455;-92
2021/08/26 07:40:25;;;;;;;11.17;8.33;;;;;;;;;;5029796;28;20493;-90
2021/08/26 07:42:53;;;;;;;10.33;8.67;;;;;;;;;;5034218;28;20466;-93
2021/08/26 07:45:20;;;;;;;15.40;9.10;;;;;;;;;;5033848;28;20475;-90
2021/08/26 07:47:47;;;;;;;12.40;8.63;;;;;;;;;;5034381;28;20463;-91
2021/08/26 07:50:15;;;;;;;11.30;8.13;;;;;;;;;;5033920;28;20456;-91
2021/08/26 07:52:42;;;;;;;11.80;8.77;;;;;;;;;;5033690;28;20487;-91
2021/08/26 07:55:09;;;;;;;11.90;8.60;;;;;;;;;;5032816;28;20440;-91
2021/08/26 07:57:36;;;;;;;10.60;8.10;;;;;;;;;;5033688;28;20458;-91
2021/08/26 08:00:05;;;;;;;15.27;8.57;;;;;;;;;;5035871;28;20450;-93
2021/08/26 08:02:32;;;;;;;11.30;8.83;;;;;;;;;;5035406;28;20452;-90
2021/08/26 08:04:59;;;;;;;12.70;8.90;;;;;;;;;;5033582;28;20478;-90
2021/08/26 08:07:26;;;;;;;10.87;9.30;;;;;;;;;;5033601;28;20450;-89
2021/08/26 08:09:53;;;;;;;10.27;8.33;;;;;;;;;;5031132;28;20474;-91
2021/08/26 08:12:22;;;;;;;14.27;9.20;;;;;;;;;;5031259;28;20962;-90
2021/08/26 08:14:49;;;;;;;11.47;7.63;;;;;;;;;;5033615;28;20467;-90
2021/08/26 08:17:18;;;;;;;11.40;8.50;;;15.30;99.90;;;;;;5033007;28;20481;-89
2021/08/26 08:19:45;;;;;;;12.83;8.30;;;;;;;;;;5033334;28;20459;-91
2021/08/26 08:22:12;;;;;;;13.20;8.10;;;;;;;;;;5033352;28;20459;-93
2021/08/26 08:24:40;;;;;;;11.87;8.67;;;;;;;;;;5031948;28;20502;-92
2021/08/26 08:27:10;;;;;;;14.10;8.43;;;;;;;;;;5033775;28;20458;-91
2021/08/26 08:29:37;;;;;;;12.73;8.53;;;;;;;;;;5010785;28;20464;-89
2021/08/26 08:32:04;;;;;;;10.67;8.30;;;;;;;;;;5013639;28;20480;-92
2021/08/26 08:34:33;;;;;;;14.80;9.20;;;15.10;99.90;;;;;;5013522;28;20459;-90
2021/08/26 08:37:03;;;;;;;9.90;8.07;;;;;;;;;;5013375;28;20448;-92
2021/08/26 08:39:30;;;;;;;10.43;8.80;;;;;;;;;;5013767;28;20445;-92
2021/08/26 08:41:57;;;;;;;12.17;9.50;;;;;;;;;;5013393;28;20928;-93
2021/08/26 08:44:25;;;;;;;14.17;9.47;;;;;;;;;;5013604;28;20479;-94
2021/08/26 08:46:58;;;;;;;14.83;10.63;;;14.90;99.90;;;;;;5015303;28;20461;-93
2021/08/26 08:49:25;;;;;;;11.93;10.73;;;;;;;;;;5016648;28;20514;-92
2021/08/26 08:55:33;;;;;;;16.50;11.70;;;;;;;;;;5032844;28;20441;-94
2021/08/26 08:58:03;;;;;;;14.87;12.57;;;;;;;;;;5025733;28;20474;-94
2021/08/26 09:00:36;;;;;;;16.17;12.70;;;;;;;;;;5024605;28;20460;-94
2021/08/26 09:03:05;;;;;;;15.73;13.40;;;14.50;99.90;;;;;;5030353;28;20491;-91
2021/08/26 09:06:11;;;;;;;17.63;13.50;;;14.40;99.90;;;;;;5021872;28;20472;-92
2021/08/26 09:08:39;;;;;;;17.33;13.07;;;;;;;;;;5018546;28;20485;-92
2021/08/26 09:11:12;;;;;;;17.83;13.30;;;14.40;99.90;;;;;;5018764;28;20452;-92
2021/08/26 09:13:41;;;;;;;15.00;13.40;;;14.30;99.90;;;;;;5021437;28;20487;-93
2021/08/26 09:16:08;;;;;;;15.90;13.90;;;;;;;;;;5020923;28;20444;-91
2021/08/26 09:18:36;;;;;;;17.70;13.93;;;;;;;;;;5018390;28;20452;-93
2021/08/26 09:21:05;;;;;;;15.83;14.13;;;14.20;99.90;;;;;;5018372;28;20456;-93
2021/08/26 09:23:34;;;;;;;15.60;13.23;;;14.60;99.90;;;;;;5017187;28;20810;-92
2021/08/26 09:26:23;;;;;;;15.87;14.17;;;14.60;99.90;;;;;;5019079;28;20447;-93
2021/08/26 09:28:53;;;;;;;18.17;13.97;;;14.60;99.90;;;;;;5016428;28;20456;-92
2021/08/26 09:31:21;;;;;;;16.90;13.53;;;14.50;99.90;;;;;;5019308;28;20459;-94
2021/08/26 09:33:57;;;;;;;17.43;13.70;;;14.60;99.90;;;;;;5019304;28;20495;-93
2021/08/26 09:36:26;;;;;;;14.40;12.87;;;14.60;99.90;;;;;;5022474;28;20554;-93
2021/08/26 09:38:57;;;;;;;13.30;12.00;;;14.60;99.90;;;;;;5026503;28;20455;-92
2021/08/26 09:41:43;;;;;;;14.60;11.80;;;14.60;99.90;;;;;;5017674;28;20466;-91
2021/08/26 09:44:14;;;;;;;14.60;12.30;;;14.60;99.90;;;;;;5018342;28;20480;-94
2021/08/26 09:46:41;;;;;;;13.17;11.77;;;;;;;;;;5018910;28;20444;-93
2021/08/26 09:49:09;;;;;;;10.70;9.07;;;;;;;;;;5020162;28;20455;-93
2021/08/26 09:51:37;;;;;;;10.50;9.43;;;;;;;;;;5019074;28;20453;-94
2021/08/26 09:54:06;;;;;;;10.67;8.63;;;14.40;99.90;;;;;;5020004;28;20484;-94
2021/08/26 09:56:40;;;;;;;9.43;8.43;;;;;;;;;;5020831;28;20543;-94
2021/08/26 09:59:07;;;;;;;11.13;7.93;;;;;;;;;;5026025;28;20486;-93
2021/08/26 10:04:27;;;;;;;7.17;6.10;;;;;;;;;;5023425;28;20456;-92
2021/08/26 10:06:55;;;;;;;7.67;6.87;;;;;;;;;;5022240;28;20460;-93
2021/08/26 10:09:22;;;;;;;6.67;6.03;;;;;;;;;;5020001;28;20502;-93
2021/08/26 10:11:50;;;;;;;7.67;6.20;;;14.50;99.90;;;;;;5019862;28;20456;-92
2021/08/26 10:14:17;;;;;;;6.93;6.23;;;;;;;;;;5019281;28;20479;-93
2021/08/26 10:16:46;;;;;;;7.50;6.80;;;14.40;99.90;;;;;;5020704;28;20452;-91
2021/08/26 10:19:15;;;;;;;7.37;5.97;;;;;;;;;;5019288;28;20433;-93
2021/08/26 10:21:43;;;;;;;5.80;5.20;;;14.50;99.90;;;;;;5019200;28;20734;-91
2021/08/26 10:24:15;;;;;;;4.80;4.40;;;12.90;99.90;;;;;;5017586;28;20449;-93
2021/08/26 10:26:44;;;;;;;4.80;4.40;;;14.50;99.90;;;;;;5017660;28;20966;-94
2021/08/26 10:29:13;;;;;;;5.70;4.10;;;14.50;99.90;;;;;;5019113;28;20810;-92
2021/08/26 10:31:41;;;;;;;4.40;3.87;;;;;;;;;;5018406;28;20464;-90
2021/08/26 10:34:20;;;;;;;3.50;3.20;;;14.50;99.90;;;;;;5018565;28;20510;-92
2021/08/26 10:37:25;;;;;;;3.87;3.47;;;14.40;99.90;;;;;;5019306;28;20456;-93
2021/08/26 10:39:52;;;;;;;3.00;2.80;;;;;;;;;;5016781;28;20455;-92
2021/08/26 10:42:43;;;;;;;3.30;3.10;;;14.10;99.90;;;;;;5017805;28;20449;-93
2021/08/26 10:45:18;;;;;;;2.67;2.47;;;14.20;99.90;;;;;;5018121;28;20523;-93
2021/08/26 10:48:12;;;;;;;2.80;2.60;;;;;;;;;;5019351;28;20482;-93
2021/08/26 10:50:41;;;;;;;2.90;2.70;;;;;;;;;;5006643;28;20471;-93
2021/08/26 10:53:10;;;;;;;2.90;2.70;;;;;;;;;;5022013;28;20470;-93
2021/08/26 10:55:46;;;;;;;3.53;3.23;;;;;;;;;;5032288;28;20453;-93
2021/08/26 10:58:34;;;;;;;4.47;4.07;;;14.60;99.90;;;;;;4962962;28;20495;-94
2021/08/26 11:01:02;;;;;;;6.30;5.20;;;;;;;;;;5032674;28;20451;-90
2021/08/26 11:07:10;;;;;;;6.67;5.27;;;;;;;;;;5030050;28;20453;-93
2021/08/26 11:09:43;;;;;;;8.37;6.33;;;;;;;;;;5030424;28;20448;-93
2021/08/26 11:12:25;;;;;;;6.50;5.83;;;16.60;99.90;;;;;;5016515;28;20452;-93
2021/08/26 11:14:53;;;;;;;7.30;5.40;;;;;;;;;;5023100;28;21011;-92
2021/08/26 11:17:36;;;;;;;7.20;5.03;;;17.70;99.90;;;;;;5017269;28;20433;-92
2021/08/26 11:20:31;;;;;;;7.90;5.27;;;17.70;99.90;;;;;;5018676;28;20459;-90
2021/08/26 11:25:53;;;;;;;6.83;5.70;;;;;;;;;;5044664;23;20432;-93
2021/08/26 11:31:22;;;;;;;5.13;4.27;;;17.90;99.90;;;;;;5063503;28;20945;-92
2021/08/26 11:33:52;;;;;;;5.63;4.13;;;17.80;99.90;;;;;;5051071;28;20489;-96
2021/08/26 11:36:23;;;;;;;6.53;4.80;;;17.90;99.90;;;;;;5057429;28;20455;-94
2021/08/26 11:38:56;;;;;;;5.07;4.10;;;;;;;;;;5053590;28;20937;-94
2021/08/26 11:41:26;;;;;;;8.27;5.30;;;;;;;;;;5044880;28;20451;-95
2021/08/26 11:43:54;;;;;;;5.90;4.90;;;;;;;;;;5048279;28;20458;-94
2021/08/26 11:46:21;;;;;;;6.03;4.80;;;;;;;;;;5064192;28;20518;-94
2021/08/26 11:48:56;;;;;;;6.87;4.67;;;17.10;99.90;;;;;;5056529;28;20459;-93
2021/08/26 11:51:25;;;;;;;5.83;5.00;;;16.90;99.90;;;;;;5055864;28;20445;-92
2021/08/26 11:53:54;;;;;;;6.33;4.53;;;16.90;99.90;;;;;;5062362;28;20474;-92
2021/08/26 11:56:21;;;;;;;5.90;4.63;;;;;;;;;;5053938;28;20447;-92
2021/08/26 11:58:48;;;;;;;5.70;4.87;;;;;;;;;;5058027;28;20455;-91
2021/08/26 12:01:22;;;;;;;5.03;4.53;;;;;;;;;;5065241;28;20451;-93
2021/08/26 12:03:53;;;;;;;6.57;5.30;;;;;;;;;;5065401;28;20498;-92
2021/08/26 12:06:20;;;;;;;7.20;5.20;;;;;;;;;;5054778;28;20843;-93
2021/08/26 12:08:48;;;;;;;6.80;4.50;;;;;;;;;;5054706;28;20446;-92
2021/08/26 12:11:26;;;;;;;5.37;4.30;;;;;;;;;;5050740;28;20497;-93
2021/08/26 12:13:58;;;;;;;5.40;4.20;;;;;;;;;;5054256;28;20486;-95
2021/08/26 12:16:27;;;;;;;5.60;4.50;;;;;;;;;;5056262;28;20964;-93
2021/08/26 12:18:54;;;;;;;7.63;4.50;;;;;;;;;;5055792;28;20427;-94
2021/08/26 12:21:24;;;;;;;6.60;5.23;;;;;;;;;;5055166;28;20458;-92
2021/08/26 12:23:52;;;;;;;10.40;5.67;;;;;;;;;;5055472;28;20450;-93
2021/08/26 12:26:21;;;;;;;7.80;6.30;;;16.90;99.90;;;;;;5057746;28;20592;-93
2021/08/26 12:28:57;;;;;;;8.30;5.00;;;16.70;99.90;;;;;;5055094;28;20461;-93
2021/08/26 12:31:24;;;;;;;6.40;5.53;;;;;;;;;;5054157;28;20446;-93
2021/08/26 12:34:12;;;;;;;9.13;5.03;;;17.00;99.90;;;;;;5058462;28;20675;-95
2021/08/26 12:36:41;;;;;;;6.80;5.47;;;17.30;99.90;;;;;;5055393;28;20474;-94
2021/08/26 12:39:16;;;;;;;7.70;5.73;;;;;;;;;;5058403;28;20454;-93
2021/08/26 12:41:43;;;;;;;9.90;6.50;;;;;;;;;;5058225;28;20443;-92
2021/08/26 12:44:28;;;;;;;7.73;5.37;;;17.70;99.90;;;;;;5058436;28;20519;-93
2021/08/26 12:46:55;;;;;;;11.90;6.30;;;;;;;;;;5060346;28;20556;-94
2021/08/26 12:49:22;;;;;;;7.33;5.73;;;;;;;;;;5059904;28;20534;-93
2021/08/26 12:51:54;;;;;;;7.23;5.60;;;17.50;99.90;;;;;;5061149;28;20451;-94
2021/08/26 12:54:24;;;;;;;8.43;5.77;;;;;;;;;;5059156;28;20481;-95
2021/08/26 12:56:54;;;;;;;11.00;5.47;;;17.30;99.90;;;;;;5059426;28;20455;-92
2021/08/26 12:59:38;;;;;;;6.70;4.73;;;17.20;99.90;;;;;;5061889;28;20866;-94
2021/08/26 13:02:07;;;;;;;6.27;5.17;;;;;;;;;;5062287;28;20450;-94
2021/08/26 13:04:34;;;;;;;7.00;5.07;;;;;;;;;;5063483;28;20477;-95
2021/08/26 13:07:04;;;;;;;8.37;5.40;;;;;;;;;;5061555;28;20451;-95
2021/08/26 13:09:33;;;;;;;5.97;4.60;;;;;;;;;;5059536;28;20457;-93
2021/08/26 13:12:04;;;;;;;8.53;4.93;;;17.00;99.90;;;;;;5060650;28;20533;-94
2021/08/26 13:14:35;;;;;;;6.20;5.60;;;17.30;99.90;;;;;;5057593;28;20490;-94
2021/08/26 13:17:02;;;;;;;9.07;5.20;;;;;;;;;;5056849;28;20969;-94
2021/08/26 13:19:30;;;;;;;6.33;5.30;;;;;;;;;;5065682;28;20455;-94
2021/08/26 13:21:57;;;;;;;6.80;5.40;;;;;;;;;;5062566;28;20454;-92
2021/08/26 13:24:24;;;;;;;8.40;5.03;;;;;;;;;;5059355;28;20461;-92
2021/08/26 13:27:06;;;;;;;7.47;5.20;;;;;;;;;;5064474;28;20525;-94
2021/08/26 13:29:34;;;;;;;7.37;4.73;;;;;;;;;;5064579;28;20458;-93
2021/08/26 13:32:02;;;;;;;5.97;5.00;;;;;;;;;;5018246;28;20556;-94
2021/08/26 13:34:29;;;;;;;5.60;4.57;;;;;;;;;;5017359;28;20567;-92
2021/08/26 13:37:04;;;;;;;7.33;5.13;;;;;;;;;;5018394;28;20436;-94
2021/08/26 13:39:32;;;;;;;8.13;5.33;;;;;;;;;;5063450;22;20526;-94
2021/08/26 13:44:43;;;;;;;5.07;4.30;;;;;;;;;;5215444;22;20494;-93
2021/08/26 13:47:29;;;;;;;7.47;5.30;;;;;;;;;;5059075;28;20478;-94
2021/08/26 13:50:04;;;;;;;7.10;4.97;;;;;;;;;;5063450;28;20914;-95
2021/08/26 13:55:26;;;;;;;7.27;5.40;;;;;;;;;;5071114;22;20458;-91
2021/08/26 13:58:12;;;;;;;9.03;5.90;;;;;;;;;;5067941;28;20427;-95
2021/08/26 14:00:44;;;;;;;5.50;4.43;;;18.50;99.90;;;;;;5066618;28;20474;-93
2021/08/26 14:03:33;;;;;;;5.80;5.03;;;;;;;;;;5093859;22;20537;-93
2021/08/26 14:06:00;;;;;;;6.57;4.63;;;;;;;;;;5073850;28;20434;-92
2021/08/26 14:08:30;;;;;;;10.10;5.03;;;;;;;;;;5105182;22;20501;-92
2021/08/26 14:10:59;;;;;;;9.83;4.60;;;;;;;;;;5071356;28;20502;-94
2021/08/26 14:13:38;;;;;;;6.27;4.50;;;;;;;;;;5067158;28;20467;-94
2021/08/26 14:16:06;;;;;;;5.40;4.20;;;18.70;99.90;;;;;;5060889;28;20455;-91
2021/08/26 14:18:33;;;;;;;7.00;5.00;;;;;;;;;;5053791;28;20454;-93
2021/08/26 14:21:01;;;;;;;5.83;4.67;;;;;;;;;;5051332;28;20438;-93
2021/08/26 14:23:29;;;;;;;6.47;4.30;;;;;;;;;;5056274;28;20462;-94
2021/08/26 14:25:56;;;;;;;4.97;4.20;;;;;;;;;;5050511;28;20443;-94
2021/08/26 14:28:24;;;;;;;4.73;4.23;;;;;;;;;;5057833;28;20449;-94
2021/08/26 14:30:51;;;;;;;3.70;3.17;;;;;;;;;;5056884;28;20459;-94
2021/08/26 14:33:19;;;;;;;7.60;4.70;;;19.40;99.90;;;;;;5057294;28;20961;-92
2021/08/26 14:35:47;;;;;;;6.87;5.10;;;;;;;;;;5051952;28;20538;-93
2021/08/26 14:38:14;;;;;;;4.80;3.97;;;;;;;;;;5056049;28;20454;-92
2021/08/26 14:40:41;;;;;;;4.50;4.10;;;;;;;;;;5053904;28;20450;-92
2021/08/26 14:43:09;;;;;;;8.40;4.70;;;;;;;;;;5054612;28;20945;-93